sensor_id;sensor_type;location;lat;lon;timestamp;temperature;humidity
55711;DHT22;41612;51.994;5.880;2024-02-28T00:01:02;4.70;82.40
55711;DHT22;41612;51.994;5.880;2024-02-28T00:03:31;4.70;82.40
55711;DHT22;41612;51.994;5.880;2024-02-28T00:05:57;4.70;82.60
55711;DHT22;41612;51.994;5.880;2024-02-28T00:08:23;4.60;82.70
55711;DHT22;41612;51.994;5.880;2024-02-28T00:10:49;4.50;82.50
55711;DHT22;41612;51.994;5.880;2024-02-28T00:13:15;4.40;83.20
55711;DHT22;41612;51.994;5.880;2024-02-28T00:15:41;4.30;83.20
55711;DHT22;41612;51.994;5.880;2024-02-28T00:18:07;4.30;83.70
55711;DHT22;41612;51.994;5.880;2024-02-28T00:20:36;4.30;83.80
55711;DHT22;41612;51.994;5.880;2024-02-28T00:23:05;4.40;84.60
55711;DHT22;41612;51.994;5.880;2024-02-28T00:25:31;4.50;84.10
55711;DHT22;41612;51.994;5.880;2024-02-28T00:27:59;4.50;84.50
55711;DHT22;41612;51.994;5.880;2024-02-28T00:30:25;4.50;83.90
55711;DHT22;41612;51.994;5.880;2024-02-28T00:32:51;4.60;84.50
55711;DHT22;41612;51.994;5.880;2024-02-28T00:35:16;4.60;84.00
55711;DHT22;41612;51.994;5.880;2024-02-28T00:37:42;4.60;84.60
55711;DHT22;41612;51.994;5.880;2024-02-28T00:40:09;4.70;85.20
55711;DHT22;41612;51.994;5.880;2024-02-28T00:42:34;4.70;84.60
55711;DHT22;41612;51.994;5.880;2024-02-28T00:45:00;4.70;84.90
55711;DHT22;41612;51.994;5.880;2024-02-28T00:47:28;4.70;84.50
55711;DHT22;41612;51.994;5.880;2024-02-28T00:50:12;4.70;84.00
55711;DHT22;41612;51.994;5.880;2024-02-28T00:52:41;4.80;83.70
55711;DHT22;41612;51.994;5.880;2024-02-28T00:55:12;4.80;83.60
55711;DHT22;41612;51.994;5.880;2024-02-28T00:57:44;4.80;83.90
55711;DHT22;41612;51.994;5.880;2024-02-28T01:00:12;4.80;83.40
55711;DHT22;41612;51.994;5.880;2024-02-28T01:02:40;4.80;83.80
55711;DHT22;41612;51.994;5.880;2024-02-28T01:05:11;4.90;84.60
55711;DHT22;41612;51.994;5.880;2024-02-28T01:07:37;4.80;84.80
55711;DHT22;41612;51.994;5.880;2024-02-28T01:10:07;4.90;85.20
55711;DHT22;41612;51.994;5.880;2024-02-28T01:12:37;4.90;85.40
55711;DHT22;41612;51.994;5.880;2024-02-28T01:15:03;4.90;84.80
55711;DHT22;41612;51.994;5.880;2024-02-28T01:17:32;4.80;84.60
55711;DHT22;41612;51.994;5.880;2024-02-28T01:19:57;4.80;84.20
55711;DHT22;41612;51.994;5.880;2024-02-28T01:22:29;4.80;84.00
55711;DHT22;41612;51.994;5.880;2024-02-28T01:24:57;4.80;84.30
55711;DHT22;41612;51.994;5.880;2024-02-28T01:27:23;4.80;84.30
55711;DHT22;41612;51.994;5.880;2024-02-28T01:29:51;4.70;84.40
55711;DHT22;41612;51.994;5.880;2024-02-28T01:32:19;4.70;84.60
55711;DHT22;41612;51.994;5.880;2024-02-28T01:34:47;4.60;84.20
55711;DHT22;41612;51.994;5.880;2024-02-28T01:37:16;4.50;84.40
55711;DHT22;41612;51.994;5.880;2024-02-28T01:39:42;4.60;84.80
55711;DHT22;41612;51.994;5.880;2024-02-28T01:42:08;4.60;85.00
55711;DHT22;41612;51.994;5.880;2024-02-28T01:44:45;4.60;85.20
55711;DHT22;41612;51.994;5.880;2024-02-28T01:47:12;4.70;85.50
55711;DHT22;41612;51.994;5.880;2024-02-28T01:49:38;4.60;85.90
55711;DHT22;41612;51.994;5.880;2024-02-28T01:52:05;4.70;86.10
55711;DHT22;41612;51.994;5.880;2024-02-28T01:54:31;4.70;86.40
55711;DHT22;41612;51.994;5.880;2024-02-28T01:56:59;4.70;86.80
55711;DHT22;41612;51.994;5.880;2024-02-28T01:59:28;4.60;86.60
55711;DHT22;41612;51.994;5.880;2024-02-28T02:01:55;4.70;86.80
55711;DHT22;41612;51.994;5.880;2024-02-28T02:04:21;4.60;86.50
55711;DHT22;41612;51.994;5.880;2024-02-28T02:06:48;4.60;86.00
55711;DHT22;41612;51.994;5.880;2024-02-28T02:09:17;4.50;85.60
55711;DHT22;41612;51.994;5.880;2024-02-28T02:11:42;4.50;86.60
55711;DHT22;41612;51.994;5.880;2024-02-28T02:14:08;4.50;86.90
55711;DHT22;41612;51.994;5.880;2024-02-28T02:16:34;4.50;86.70
55711;DHT22;41612;51.994;5.880;2024-02-28T02:19:00;4.50;86.90
55711;DHT22;41612;51.994;5.880;2024-02-28T02:21:30;4.50;86.90
55711;DHT22;41612;51.994;5.880;2024-02-28T02:23:56;4.50;87.50
55711;DHT22;41612;51.994;5.880;2024-02-28T02:26:25;4.50;87.50
55711;DHT22;41612;51.994;5.880;2024-02-28T02:28:51;4.50;86.90
55711;DHT22;41612;51.994;5.880;2024-02-28T02:31:17;4.50;86.30
55711;DHT22;41612;51.994;5.880;2024-02-28T02:33:42;4.50;86.30
55711;DHT22;41612;51.994;5.880;2024-02-28T02:36:08;4.30;86.30
55711;DHT22;41612;51.994;5.880;2024-02-28T02:38:34;4.20;86.50
55711;DHT22;41612;51.994;5.880;2024-02-28T02:41:00;4.10;86.60
55711;DHT22;41612;51.994;5.880;2024-02-28T02:43:29;4.00;86.80
55711;DHT22;41612;51.994;5.880;2024-02-28T02:45:55;4.00;87.30
55711;DHT22;41612;51.994;5.880;2024-02-28T02:48:20;4.00;87.60
55711;DHT22;41612;51.994;5.880;2024-02-28T02:50:46;4.00;87.80
55711;DHT22;41612;51.994;5.880;2024-02-28T02:53:13;4.00;87.50
55711;DHT22;41612;51.994;5.880;2024-02-28T02:55:41;4.00;87.70
55711;DHT22;41612;51.994;5.880;2024-02-28T02:58:07;4.00;87.90
55711;DHT22;41612;51.994;5.880;2024-02-28T03:00:35;4.00;88.20
55711;DHT22;41612;51.994;5.880;2024-02-28T03:03:03;3.90;88.40
55711;DHT22;41612;51.994;5.880;2024-02-28T03:05:31;3.90;88.50
55711;DHT22;41612;51.994;5.880;2024-02-28T03:07:56;4.00;88.50
55711;DHT22;41612;51.994;5.880;2024-02-28T03:10:23;3.90;88.20
55711;DHT22;41612;51.994;5.880;2024-02-28T03:12:49;4.00;88.30
55711;DHT22;41612;51.994;5.880;2024-02-28T03:15:15;4.00;88.30
55711;DHT22;41612;51.994;5.880;2024-02-28T03:17:41;3.90;88.40
55711;DHT22;41612;51.994;5.880;2024-02-28T03:20:10;3.90;88.50
55711;DHT22;41612;51.994;5.880;2024-02-28T03:22:37;4.00;88.70
55711;DHT22;41612;51.994;5.880;2024-02-28T03:25:04;4.00;88.60
55711;DHT22;41612;51.994;5.880;2024-02-28T03:27:32;4.00;88.50
55711;DHT22;41612;51.994;5.880;2024-02-28T03:29:58;4.00;88.30
55711;DHT22;41612;51.994;5.880;2024-02-28T03:32:26;4.10;88.00
55711;DHT22;41612;51.994;5.880;2024-02-28T03:34:53;4.10;87.50
55711;DHT22;41612;51.994;5.880;2024-02-28T03:37:21;4.20;87.30
55711;DHT22;41612;51.994;5.880;2024-02-28T03:39:50;4.10;86.90
55711;DHT22;41612;51.994;5.880;2024-02-28T03:42:16;4.10;86.60
55711;DHT22;41612;51.994;5.880;2024-02-28T03:44:42;4.00;86.30
55711;DHT22;41612;51.994;5.880;2024-02-28T03:47:13;4.00;86.10
55711;DHT22;41612;51.994;5.880;2024-02-28T03:49:42;3.90;85.90
55711;DHT22;41612;51.994;5.880;2024-02-28T03:52:07;3.80;85.70
55711;DHT22;41612;51.994;5.880;2024-02-28T03:54:36;3.70;86.00
55711;DHT22;41612;51.994;5.880;2024-02-28T03:57:04;3.70;86.10
55711;DHT22;41612;51.994;5.880;2024-02-28T03:59:41;3.70;86.10
55711;DHT22;41612;51.994;5.880;2024-02-28T04:02:09;3.70;86.00
55711;DHT22;41612;51.994;5.880;2024-02-28T04:04:35;3.60;86.00
55711;DHT22;41612;51.994;5.880;2024-02-28T04:07:01;3.60;86.20
55711;DHT22;41612;51.994;5.880;2024-02-28T04:09:27;3.60;86.20
55711;DHT22;41612;51.994;5.880;2024-02-28T04:11:56;3.60;86.30
55711;DHT22;41612;51.994;5.880;2024-02-28T04:14:24;3.50;86.50
55711;DHT22;41612;51.994;5.880;2024-02-28T04:16:50;3.60;86.70
55711;DHT22;41612;51.994;5.880;2024-02-28T04:19:16;3.60;86.80
55711;DHT22;41612;51.994;5.880;2024-02-28T04:21:45;3.70;86.60
55711;DHT22;41612;51.994;5.880;2024-02-28T04:24:11;3.70;86.60
55711;DHT22;41612;51.994;5.880;2024-02-28T04:26:39;3.80;86.70
55711;DHT22;41612;51.994;5.880;2024-02-28T04:29:08;3.80;86.50
55711;DHT22;41612;51.994;5.880;2024-02-28T04:31:39;3.80;86.40
55711;DHT22;41612;51.994;5.880;2024-02-28T04:34:05;3.80;86.10
55711;DHT22;41612;51.994;5.880;2024-02-28T04:36:31;3.80;85.90
55711;DHT22;41612;51.994;5.880;2024-02-28T04:38:57;3.80;85.70
55711;DHT22;41612;51.994;5.880;2024-02-28T04:41:23;3.80;85.60
55711;DHT22;41612;51.994;5.880;2024-02-28T04:43:49;3.70;85.50
55711;DHT22;41612;51.994;5.880;2024-02-28T04:46:18;3.60;85.60
55711;DHT22;41612;51.994;5.880;2024-02-28T04:48:44;3.60;85.90
55711;DHT22;41612;51.994;5.880;2024-02-28T04:51:10;3.60;85.80
55711;DHT22;41612;51.994;5.880;2024-02-28T04:53:39;3.70;85.90
55711;DHT22;41612;51.994;5.880;2024-02-28T04:56:05;3.70;85.90
55711;DHT22;41612;51.994;5.880;2024-02-28T04:58:31;3.60;85.90
55711;DHT22;41612;51.994;5.880;2024-02-28T05:00:57;3.50;86.00
55711;DHT22;41612;51.994;5.880;2024-02-28T05:03:29;3.60;86.00
55711;DHT22;41612;51.994;5.880;2024-02-28T05:05:55;3.50;86.00
55711;DHT22;41612;51.994;5.880;2024-02-28T05:08:25;3.60;86.00
55711;DHT22;41612;51.994;5.880;2024-02-28T05:10:57;3.70;85.80
55711;DHT22;41612;51.994;5.880;2024-02-28T05:13:23;3.70;85.50
55711;DHT22;41612;51.994;5.880;2024-02-28T05:15:52;3.60;85.40
55711;DHT22;41612;51.994;5.880;2024-02-28T05:18:22;3.50;85.40
55711;DHT22;41612;51.994;5.880;2024-02-28T05:20:48;3.60;85.40
55711;DHT22;41612;51.994;5.880;2024-02-28T05:23:14;3.60;85.90
55711;DHT22;41612;51.994;5.880;2024-02-28T05:25:40;3.50;85.70
55711;DHT22;41612;51.994;5.880;2024-02-28T05:28:06;3.50;85.80
55711;DHT22;41612;51.994;5.880;2024-02-28T05:30:35;3.50;85.90
55711;DHT22;41612;51.994;5.880;2024-02-28T05:33:01;3.50;85.70
55711;DHT22;41612;51.994;5.880;2024-02-28T05:35:27;3.50;86.10
55711;DHT22;41612;51.994;5.880;2024-02-28T05:37:53;3.50;86.30
55711;DHT22;41612;51.994;5.880;2024-02-28T05:40:22;3.60;86.00
55711;DHT22;41612;51.994;5.880;2024-02-28T05:42:48;3.60;85.90
55711;DHT22;41612;51.994;5.880;2024-02-28T05:45:14;3.60;86.50
55711;DHT22;41612;51.994;5.880;2024-02-28T05:47:43;3.70;86.30
55711;DHT22;41612;51.994;5.880;2024-02-28T05:50:09;3.60;85.90
55711;DHT22;41612;51.994;5.880;2024-02-28T05:52:36;3.60;86.30
55711;DHT22;41612;51.994;5.880;2024-02-28T05:55:02;3.60;86.10
55711;DHT22;41612;51.994;5.880;2024-02-28T05:57:32;3.50;85.80
55711;DHT22;41612;51.994;5.880;2024-02-28T05:59:59;3.50;86.10
55711;DHT22;41612;51.994;5.880;2024-02-28T06:02:25;3.50;85.80
55711;DHT22;41612;51.994;5.880;2024-02-28T06:04:58;3.50;86.00
55711;DHT22;41612;51.994;5.880;2024-02-28T06:07:24;3.40;85.70
55711;DHT22;41612;51.994;5.880;2024-02-28T06:09:50;3.40;85.70
55711;DHT22;41612;51.994;5.880;2024-02-28T06:12:18;3.40;85.60
55711;DHT22;41612;51.994;5.880;2024-02-28T06:14:47;3.40;85.60
55711;DHT22;41612;51.994;5.880;2024-02-28T06:17:21;3.40;85.40
55711;DHT22;41612;51.994;5.880;2024-02-28T06:19:47;3.30;85.40
55711;DHT22;41612;51.994;5.880;2024-02-28T06:22:13;3.40;85.50
55711;DHT22;41612;51.994;5.880;2024-02-28T06:24:39;3.40;85.40
55711;DHT22;41612;51.994;5.880;2024-02-28T06:27:05;3.40;85.60
55711;DHT22;41612;51.994;5.880;2024-02-28T06:29:38;3.40;85.50
55711;DHT22;41612;51.994;5.880;2024-02-28T06:32:04;3.40;85.30
55711;DHT22;41612;51.994;5.880;2024-02-28T06:34:30;3.40;85.50
55711;DHT22;41612;51.994;5.880;2024-02-28T06:37:03;3.40;85.30
55711;DHT22;41612;51.994;5.880;2024-02-28T06:39:37;3.40;85.40
55711;DHT22;41612;51.994;5.880;2024-02-28T06:42:03;3.40;85.00
55711;DHT22;41612;51.994;5.880;2024-02-28T06:44:29;3.20;85.00
55711;DHT22;41612;51.994;5.880;2024-02-28T06:46:57;3.30;85.20
55711;DHT22;41612;51.994;5.880;2024-02-28T06:49:23;3.30;85.10
55711;DHT22;41612;51.994;5.880;2024-02-28T06:55:42;3.30;85.60
55711;DHT22;41612;51.994;5.880;2024-02-28T06:58:09;3.20;85.10
55711;DHT22;41612;51.994;5.880;2024-02-28T07:00:38;3.30;84.90
55711;DHT22;41612;51.994;5.880;2024-02-28T07:03:09;3.30;84.90
55711;DHT22;41612;51.994;5.880;2024-02-28T07:05:35;3.30;84.80
55711;DHT22;41612;51.994;5.880;2024-02-28T07:08:01;3.20;84.80
55711;DHT22;41612;51.994;5.880;2024-02-28T07:10:31;3.20;84.80
55711;DHT22;41612;51.994;5.880;2024-02-28T07:12:57;3.20;85.00
55711;DHT22;41612;51.994;5.880;2024-02-28T07:15:23;3.30;85.00
55711;DHT22;41612;51.994;5.880;2024-02-28T07:17:48;3.40;84.90
55711;DHT22;41612;51.994;5.880;2024-02-28T07:20:18;3.40;84.80
55711;DHT22;41612;51.994;5.880;2024-02-28T07:22:49;3.40;84.70
55711;DHT22;41612;51.994;5.880;2024-02-28T07:25:19;3.40;84.70
55711;DHT22;41612;51.994;5.880;2024-02-28T07:27:47;3.50;84.70
55711;DHT22;41612;51.994;5.880;2024-02-28T07:30:19;3.50;84.60
55711;DHT22;41612;51.994;5.880;2024-02-28T07:32:47;3.50;84.70
55711;DHT22;41612;51.994;5.880;2024-02-28T07:35:13;3.50;84.40
55711;DHT22;41612;51.994;5.880;2024-02-28T07:37:39;3.50;84.40
55711;DHT22;41612;51.994;5.880;2024-02-28T07:40:08;3.50;84.40
55711;DHT22;41612;51.994;5.880;2024-02-28T07:42:34;3.60;84.50
55711;DHT22;41612;51.994;5.880;2024-02-28T07:45:06;3.60;84.20
55711;DHT22;41612;51.994;5.880;2024-02-28T07:47:37;3.70;84.30
55711;DHT22;41612;51.994;5.880;2024-02-28T07:50:12;3.70;84.30
55711;DHT22;41612;51.994;5.880;2024-02-28T07:52:38;3.80;84.30
55711;DHT22;41612;51.994;5.880;2024-02-28T07:55:06;3.90;84.20
55711;DHT22;41612;51.994;5.880;2024-02-28T07:57:39;4.00;83.80
55711;DHT22;41612;51.994;5.880;2024-02-28T08:00:05;4.00;83.70
55711;DHT22;41612;51.994;5.880;2024-02-28T08:02:40;3.90;83.60
55711;DHT22;41612;51.994;5.880;2024-02-28T08:05:11;3.90;83.80
55711;DHT22;41612;51.994;5.880;2024-02-28T08:07:39;3.90;84.30
55711;DHT22;41612;51.994;5.880;2024-02-28T08:10:06;4.00;84.70
55711;DHT22;41612;51.994;5.880;2024-02-28T08:12:32;4.00;84.70
55711;DHT22;41612;51.994;5.880;2024-02-28T08:15:01;4.00;84.40
55711;DHT22;41612;51.994;5.880;2024-02-28T08:17:29;4.00;84.70
55711;DHT22;41612;51.994;5.880;2024-02-28T08:20:05;4.00;84.80
55711;DHT22;41612;51.994;5.880;2024-02-28T08:22:34;4.10;84.90
55711;DHT22;41612;51.994;5.880;2024-02-28T08:25:00;4.20;84.70
55711;DHT22;41612;51.994;5.880;2024-02-28T08:27:25;4.30;84.40
55711;DHT22;41612;51.994;5.880;2024-02-28T08:29:53;4.30;83.90
55711;DHT22;41612;51.994;5.880;2024-02-28T08:32:22;4.30;84.00
55711;DHT22;41612;51.994;5.880;2024-02-28T08:34:48;4.40;83.90
55711;DHT22;41612;51.994;5.880;2024-02-28T08:37:14;4.40;83.90
55711;DHT22;41612;51.994;5.880;2024-02-28T08:39:42;4.40;83.80
55711;DHT22;41612;51.994;5.880;2024-02-28T08:42:11;4.40;83.60
55711;DHT22;41612;51.994;5.880;2024-02-28T08:44:40;4.40;83.60
55711;DHT22;41612;51.994;5.880;2024-02-28T08:47:09;4.40;83.70
55711;DHT22;41612;51.994;5.880;2024-02-28T08:49:41;4.50;83.90
55711;DHT22;41612;51.994;5.880;2024-02-28T08:52:11;4.40;84.10
55711;DHT22;41612;51.994;5.880;2024-02-28T08:54:37;4.50;84.20
55711;DHT22;41612;51.994;5.880;2024-02-28T08:57:05;4.60;84.10
55711;DHT22;41612;51.994;5.880;2024-02-28T08:59:34;4.60;84.00
55711;DHT22;41612;51.994;5.880;2024-02-28T09:02:00;4.70;84.20
55711;DHT22;41612;51.994;5.880;2024-02-28T09:04:25;4.80;84.20
55711;DHT22;41612;51.994;5.880;2024-02-28T09:06:51;4.90;84.00
55711;DHT22;41612;51.994;5.880;2024-02-28T09:09:23;4.90;83.60
55711;DHT22;41612;51.994;5.880;2024-02-28T09:11:51;4.90;83.70
55711;DHT22;41612;51.994;5.880;2024-02-28T09:14:16;5.00;83.90
55711;DHT22;41612;51.994;5.880;2024-02-28T09:16:42;5.00;83.80
55711;DHT22;41612;51.994;5.880;2024-02-28T09:19:08;5.10;83.70
55711;DHT22;41612;51.994;5.880;2024-02-28T09:21:42;5.10;83.60
55711;DHT22;41612;51.994;5.880;2024-02-28T09:24:11;5.10;83.60
55711;DHT22;41612;51.994;5.880;2024-02-28T09:26:43;5.00;83.70
55711;DHT22;41612;51.994;5.880;2024-02-28T09:29:17;5.00;83.80
55711;DHT22;41612;51.994;5.880;2024-02-28T09:31:43;5.00;83.80
55711;DHT22;41612;51.994;5.880;2024-02-28T09:34:08;4.90;83.90
55711;DHT22;41612;51.994;5.880;2024-02-28T09:36:47;4.90;84.00
55711;DHT22;41612;51.994;5.880;2024-02-28T09:39:13;4.90;84.00
55711;DHT22;41612;51.994;5.880;2024-02-28T09:41:42;4.90;84.10
55711;DHT22;41612;51.994;5.880;2024-02-28T09:44:08;5.00;84.10
55711;DHT22;41612;51.994;5.880;2024-02-28T09:46:37;5.00;84.20
55711;DHT22;41612;51.994;5.880;2024-02-28T09:49:05;5.00;84.30
55711;DHT22;41612;51.994;5.880;2024-02-28T09:51:35;5.00;84.40
55711;DHT22;41612;51.994;5.880;2024-02-28T09:54:07;5.10;84.50
55711;DHT22;41612;51.994;5.880;2024-02-28T09:56:33;5.20;84.30
55711;DHT22;41612;51.994;5.880;2024-02-28T09:59:04;5.20;84.30
55711;DHT22;41612;51.994;5.880;2024-02-28T10:01:42;5.30;84.40
55711;DHT22;41612;51.994;5.880;2024-02-28T10:04:10;5.50;84.30
55711;DHT22;41612;51.994;5.880;2024-02-28T10:06:40;5.60;84.20
55711;DHT22;41612;51.994;5.880;2024-02-28T10:09:08;5.70;83.80
55711;DHT22;41612;51.994;5.880;2024-02-28T10:11:36;5.70;83.50
55711;DHT22;41612;51.994;5.880;2024-02-28T10:14:06;5.70;83.50
55711;DHT22;41612;51.994;5.880;2024-02-28T10:16:34;5.70;83.60
55711;DHT22;41612;51.994;5.880;2024-02-28T10:19:05;5.70;83.40
55711;DHT22;41612;51.994;5.880;2024-02-28T10:21:33;5.90;83.60
55711;DHT22;41612;51.994;5.880;2024-02-28T10:24:02;6.00;83.10
55711;DHT22;41612;51.994;5.880;2024-02-28T10:26:31;6.10;83.00
55711;DHT22;41612;51.994;5.880;2024-02-28T10:29:03;6.20;82.90
55711;DHT22;41612;51.994;5.880;2024-02-28T10:31:32;6.30;82.60
55711;DHT22;41612;51.994;5.880;2024-02-28T10:34:05;6.50;82.40
55711;DHT22;41612;51.994;5.880;2024-02-28T10:36:35;6.50;82.10
55711;DHT22;41612;51.994;5.880;2024-02-28T10:39:02;6.50;81.60
55711;DHT22;41612;51.994;5.880;2024-02-28T10:41:33;6.50;81.80
55711;DHT22;41612;51.994;5.880;2024-02-28T10:44:02;6.60;81.70
55711;DHT22;41612;51.994;5.880;2024-02-28T10:46:28;6.70;81.90
55711;DHT22;41612;51.994;5.880;2024-02-28T10:48:54;6.80;81.30
55711;DHT22;41612;51.994;5.880;2024-02-28T10:51:23;6.80;80.80
55711;DHT22;41612;51.994;5.880;2024-02-28T10:54:11;6.80;80.90
55711;DHT22;41612;51.994;5.880;2024-02-28T10:56:40;6.90;81.00
55711;DHT22;41612;51.994;5.880;2024-02-28T10:59:07;6.90;80.80
55711;DHT22;41612;51.994;5.880;2024-02-28T11:01:38;6.90;80.60
55711;DHT22;41612;51.994;5.880;2024-02-28T11:04:11;6.80;80.80
55711;DHT22;41612;51.994;5.880;2024-02-28T11:07:08;6.80;80.70
55711;DHT22;41612;51.994;5.880;2024-02-28T11:09:40;6.70;80.50
55711;DHT22;41612;51.994;5.880;2024-02-28T11:12:29;6.60;80.80
55711;DHT22;41612;51.994;5.880;2024-02-28T11:15:02;6.70;81.10
55711;DHT22;41612;51.994;5.880;2024-02-28T11:17:41;6.80;81.30
55711;DHT22;41612;51.994;5.880;2024-02-28T11:20:13;7.00;81.20
55711;DHT22;41612;51.994;5.880;2024-02-28T11:22:42;7.10;80.90
55711;DHT22;41612;51.994;5.880;2024-02-28T11:25:11;7.20;81.00
55711;DHT22;41612;51.994;5.880;2024-02-28T11:27:49;7.20;80.90
55711;DHT22;41612;51.994;5.880;2024-02-28T11:30:15;7.30;80.70
55711;DHT22;41612;51.994;5.880;2024-02-28T11:32:44;7.40;80.90
55711;DHT22;41612;51.994;5.880;2024-02-28T11:35:13;7.50;80.90
55711;DHT22;41612;51.994;5.880;2024-02-28T11:37:41;7.50;80.60
55711;DHT22;41612;51.994;5.880;2024-02-28T11:40:13;7.60;80.60
55711;DHT22;41612;51.994;5.880;2024-02-28T11:42:52;7.60;80.40
55711;DHT22;41612;51.994;5.880;2024-02-28T11:45:18;7.60;80.40
55711;DHT22;41612;51.994;5.880;2024-02-28T11:47:44;7.70;80.30
55711;DHT22;41612;51.994;5.880;2024-02-28T11:50:15;7.70;80.40
55711;DHT22;41612;51.994;5.880;2024-02-28T11:52:43;7.70;80.20
55711;DHT22;41612;51.994;5.880;2024-02-28T11:55:09;7.60;80.10
55711;DHT22;41612;51.994;5.880;2024-02-28T11:57:36;7.50;80.10
55711;DHT22;41612;51.994;5.880;2024-02-28T12:00:13;7.50;80.50
55711;DHT22;41612;51.994;5.880;2024-02-28T12:02:44;7.60;80.90
55711;DHT22;41612;51.994;5.880;2024-02-28T12:05:15;7.60;80.90
55711;DHT22;41612;51.994;5.880;2024-02-28T12:07:47;7.70;81.00
55711;DHT22;41612;51.994;5.880;2024-02-28T12:10:19;7.80;81.00
55711;DHT22;41612;51.994;5.880;2024-02-28T12:12:47;8.00;81.10
55711;DHT22;41612;51.994;5.880;2024-02-28T12:15:15;8.10;80.50
55711;DHT22;41612;51.994;5.880;2024-02-28T12:17:56;8.10;80.30
55711;DHT22;41612;51.994;5.880;2024-02-28T12:20:26;8.20;80.30
55711;DHT22;41612;51.994;5.880;2024-02-28T12:22:52;8.20;80.40
55711;DHT22;41612;51.994;5.880;2024-02-28T12:25:26;8.30;79.90
55711;DHT22;41612;51.994;5.880;2024-02-28T12:27:54;8.20;79.60
55711;DHT22;41612;51.994;5.880;2024-02-28T12:30:22;8.20;79.90
55711;DHT22;41612;51.994;5.880;2024-02-28T12:32:52;8.20;80.10
55711;DHT22;41612;51.994;5.880;2024-02-28T12:35:23;8.10;80.40
55711;DHT22;41612;51.994;5.880;2024-02-28T12:37:51;8.10;80.40
55711;DHT22;41612;51.994;5.880;2024-02-28T12:40:23;8.10;80.40
55711;DHT22;41612;51.994;5.880;2024-02-28T12:42:50;8.20;80.60
55711;DHT22;41612;51.994;5.880;2024-02-28T12:45:19;8.20;80.50
55711;DHT22;41612;51.994;5.880;2024-02-28T12:47:48;8.30;80.60
55711;DHT22;41612;51.994;5.880;2024-02-28T12:50:19;8.50;80.30
55711;DHT22;41612;51.994;5.880;2024-02-28T12:52:49;8.70;79.90
55711;DHT22;41612;51.994;5.880;2024-02-28T12:55:19;8.80;79.70
55711;DHT22;41612;51.994;5.880;2024-02-28T12:57:54;9.00;79.20
55711;DHT22;41612;51.994;5.880;2024-02-28T13:00:23;9.00;78.20
55711;DHT22;41612;51.994;5.880;2024-02-28T13:02:49;8.90;78.40
55711;DHT22;41612;51.994;5.880;2024-02-28T13:05:17;8.90;78.40
55711;DHT22;41612;51.994;5.880;2024-02-28T13:07:45;8.90;78.60
55711;DHT22;41612;51.994;5.880;2024-02-28T13:10:13;8.90;78.30
55711;DHT22;41612;51.994;5.880;2024-02-28T13:12:50;8.90;78.70
55711;DHT22;41612;51.994;5.880;2024-02-28T13:15:16;8.80;78.60
55711;DHT22;41612;51.994;5.880;2024-02-28T13:17:52;8.80;78.30
55711;DHT22;41612;51.994;5.880;2024-02-28T13:20:21;8.70;78.50
55711;DHT22;41612;51.994;5.880;2024-02-28T13:22:47;8.70;78.80
55711;DHT22;41612;51.994;5.880;2024-02-28T13:25:21;8.80;79.20
55711;DHT22;41612;51.994;5.880;2024-02-28T13:27:54;8.90;78.70
55711;DHT22;41612;51.994;5.880;2024-02-28T13:30:20;8.80;78.70
55711;DHT22;41612;51.994;5.880;2024-02-28T13:32:48;8.80;78.90
55711;DHT22;41612;51.994;5.880;2024-02-28T13:35:24;8.80;79.00
55711;DHT22;41612;51.994;5.880;2024-02-28T13:37:56;8.80;79.10
55711;DHT22;41612;51.994;5.880;2024-02-28T13:40:28;8.80;79.20
55711;DHT22;41612;51.994;5.880;2024-02-28T13:42:56;8.80;78.90
55711;DHT22;41612;51.994;5.880;2024-02-28T13:45:31;8.70;79.30
55711;DHT22;41612;51.994;5.880;2024-02-28T13:48:04;8.80;79.20
55711;DHT22;41612;51.994;5.880;2024-02-28T13:50:31;8.80;79.30
55711;DHT22;41612;51.994;5.880;2024-02-28T13:53:00;8.80;79.50
55711;DHT22;41612;51.994;5.880;2024-02-28T13:55:29;8.90;79.20
55711;DHT22;41612;51.994;5.880;2024-02-28T13:57:55;9.00;79.20
55711;DHT22;41612;51.994;5.880;2024-02-28T14:00:32;8.90;79.20
55711;DHT22;41612;51.994;5.880;2024-02-28T14:03:00;9.00;79.10
55711;DHT22;41612;51.994;5.880;2024-02-28T14:05:26;9.00;79.00
55711;DHT22;41612;51.994;5.880;2024-02-28T14:07:52;9.00;78.90
55711;DHT22;41612;51.994;5.880;2024-02-28T14:10:21;9.10;78.90
55711;DHT22;41612;51.994;5.880;2024-02-28T14:12:53;9.10;78.70
55711;DHT22;41612;51.994;5.880;2024-02-28T14:15:32;9.10;78.70
55711;DHT22;41612;51.994;5.880;2024-02-28T14:18:03;9.00;78.80
55711;DHT22;41612;51.994;5.880;2024-02-28T14:20:31;9.00;78.70
55711;DHT22;41612;51.994;5.880;2024-02-28T14:23:11;8.90;78.80
55711;DHT22;41612;51.994;5.880;2024-02-28T14:25:42;8.90;78.90
55711;DHT22;41612;51.994;5.880;2024-02-28T14:28:08;8.90;79.30
55711;DHT22;41612;51.994;5.880;2024-02-28T14:30:35;8.90;79.20
55711;DHT22;41612;51.994;5.880;2024-02-28T14:33:02;9.00;79.30
55711;DHT22;41612;51.994;5.880;2024-02-28T14:35:28;9.00;79.00
55711;DHT22;41612;51.994;5.880;2024-02-28T14:37:57;8.90;79.00
55711;DHT22;41612;51.994;5.880;2024-02-28T14:40:23;9.00;79.30
55711;DHT22;41612;51.994;5.880;2024-02-28T14:42:48;9.00;79.30
55711;DHT22;41612;51.994;5.880;2024-02-28T14:45:17;9.10;79.10
55711;DHT22;41612;51.994;5.880;2024-02-28T14:47:43;9.10;79.10
55711;DHT22;41612;51.994;5.880;2024-02-28T14:50:19;9.20;79.10
55711;DHT22;41612;51.994;5.880;2024-02-28T14:52:51;9.30;78.80
55711;DHT22;41612;51.994;5.880;2024-02-28T14:55:19;9.30;78.70
55711;DHT22;41612;51.994;5.880;2024-02-28T14:57:47;9.20;78.60
55711;DHT22;41612;51.994;5.880;2024-02-28T15:00:16;9.10;78.80
55711;DHT22;41612;51.994;5.880;2024-02-28T15:02:46;9.00;78.90
55711;DHT22;41612;51.994;5.880;2024-02-28T15:05:28;9.00;79.10
55711;DHT22;41612;51.994;5.880;2024-02-28T15:07:58;9.00;79.20
55711;DHT22;41612;51.994;5.880;2024-02-28T15:10:45;8.90;79.30
55711;DHT22;41612;51.994;5.880;2024-02-28T15:13:24;8.90;79.30
55711;DHT22;41612;51.994;5.880;2024-02-28T15:15:50;8.90;79.30
55711;DHT22;41612;51.994;5.880;2024-02-28T15:18:19;8.80;79.30
55711;DHT22;41612;51.994;5.880;2024-02-28T15:20:51;8.90;79.50
55711;DHT22;41612;51.994;5.880;2024-02-28T15:23:19;8.90;79.40
55711;DHT22;41612;51.994;5.880;2024-02-28T15:25:49;8.90;79.30
55711;DHT22;41612;51.994;5.880;2024-02-28T15:28:20;8.90;79.40
55711;DHT22;41612;51.994;5.880;2024-02-28T15:30:50;8.90;79.40
55711;DHT22;41612;51.994;5.880;2024-02-28T15:33:20;9.00;79.30
55711;DHT22;41612;51.994;5.880;2024-02-28T15:35:49;9.00;79.30
55711;DHT22;41612;51.994;5.880;2024-02-28T15:38:17;9.00;79.30
55711;DHT22;41612;51.994;5.880;2024-02-28T15:40:49;9.00;79.40
55711;DHT22;41612;51.994;5.880;2024-02-28T15:43:17;9.10;79.40
55711;DHT22;41612;51.994;5.880;2024-02-28T15:45:43;9.10;79.30
55711;DHT22;41612;51.994;5.880;2024-02-28T15:48:15;9.00;79.00
55711;DHT22;41612;51.994;5.880;2024-02-28T15:50:46;9.00;78.90
55711;DHT22;41612;51.994;5.880;2024-02-28T15:53:20;9.10;79.00
55711;DHT22;41612;51.994;5.880;2024-02-28T15:55:53;9.00;79.10
55711;DHT22;41612;51.994;5.880;2024-02-28T15:58:21;9.00;79.20